Decoded Metar for LFLC (CLERMONT FERRAND in FRANCE) (IATA:CFE) | Meteo·Mobile Aviation Weather
aviador You're here:

LFLC Decoded Metar

CLERMONT FERRAND in FRANCE
Report Time2019-09-17 00:00:00
UTC Time2019-09-17 00:28:20
Flight Rules vfr VFR
WindVRB at 02 kt
Visibility9999 m
Phenomena:N/A
Clouds:N/A
Expected CloudBase > 5,200 ft AGL from Temp-Dew spread
CeilingNone
Temp19°C (ISA +6)
Dew Point06°C (43% RH)
AAT17.4°C
QNH1019 hPa
Density Alt1,732 ft
Elevation1,083 ft
Report Wrong Elevation
Raw Report
LFLC 170000Z AUTO VRB02KT CAVOK 19/06 Q1019 NOSIG=

Extra information for LFLC:More info

Metar Taf Metar & Taf Last 4 Metars F.Rules Stats Wind Profile Meteogram Temp Stats Airport Information Weather charts Add Link Nearby VenuesMetar ALERT Operation Metar Decoded Social comments